Time;durP1;ratioP1;P1;durP2;ratioP2;P2;SDS_P1;SDS_P2;PMS_P1;PMS_P2;Temp;Humidity;BMP_temperature;BMP_pressure;BME280_temperature;BME280_humidity;BME280_pressure;Samples;Min_cycle;Max_cycle;Signal;HPM_P1;HPM_P2
2022/10/31 00:01:59;;;;;;;208.43;71.03;;;16.40;99.90;;;;;;4920767;29;20040;-91
2022/10/31 00:04:25;;;;;;;220.77;73.20;;;16.50;99.90;;;;;;4927080;29;20525;-91
2022/10/31 00:12:10;;;;;;;228.55;81.07;;;16.70;99.90;;;;;;4925057;29;20056;-92
2022/10/31 00:14:37;;;;;;;200.70;79.32;;;16.70;99.90;;;;;;4885307;29;20029;-93
2022/10/31 00:17:03;;;;;;;227.43;79.32;;;16.80;99.90;;;;;;4901280;29;20029;-92
2022/10/31 00:19:48;;;;;;;213.10;80.72;;;16.80;99.90;;;;;;4900767;29;20036;-91
2022/10/31 00:22:15;;;;;;;218.65;77.80;;;16.90;99.90;;;;;;4901146;29;20040;-90
2022/10/31 00:24:45;;;;;;;226.20;81.97;;;16.90;99.90;;;;;;4900749;29;20029;-92
2022/10/31 00:27:15;;;;;;;230.18;76.53;;;16.90;99.90;;;;;;4900733;29;20047;-92
2022/10/31 00:29:41;;;;;;;245.73;78.10;;;16.90;99.90;;;;;;4900901;29;20033;-93
2022/10/31 00:32:08;;;;;;;239.43;78.30;;;16.90;99.90;;;;;;4900587;29;20056;-92
2022/10/31 00:34:38;;;;;;;231.48;74.85;;;16.80;99.90;;;;;;4885081;29;20033;-94
2022/10/31 00:37:04;;;;;;;346.00;75.53;;;16.70;99.90;;;;;;4900534;29;20037;-91
2022/10/31 00:39:31;;;;;;;277.73;68.70;;;16.50;99.90;;;;;;4900719;29;20037;-92
2022/10/31 00:41:57;;;;;;;241.55;67.55;;;16.40;99.90;;;;;;4900505;29;20041;-92
2022/10/31 00:44:24;;;;;;;221.45;61.80;;;16.30;99.90;;;;;;4900460;29;20447;-90
2022/10/31 00:46:50;;;;;;;288.33;68.65;;;16.20;99.90;;;;;;4900723;29;20390;-92
2022/10/31 00:49:21;;;;;;;343.67;68.38;;;16.20;99.90;;;;;;4900055;29;20029;-90
2022/10/31 00:51:51;;;;;;;330.55;70.03;;;16.30;99.90;;;;;;4900895;29;20055;-90
2022/10/31 00:54:18;;;;;;;368.10;68.53;;;16.30;99.90;;;;;;4901837;29;20032;-92
2022/10/31 00:56:48;;;;;;;333.63;70.50;;;16.30;99.90;;;;;;4886393;29;20032;-91
2022/10/31 00:59:14;;;;;;;318.25;70.82;;;16.30;99.90;;;;;;4901903;29;20120;-90
2022/10/31 01:01:41;;;;;;;297.60;69.90;;;16.30;99.90;;;;;;4901669;29;20040;-92
2022/10/31 01:04:08;;;;;;;256.35;66.10;;;16.30;99.90;;;;;;4901120;29;20029;-91
2022/10/31 01:07:13;;;;;;;248.68;68.78;;;16.40;99.90;;;;;;4901054;29;20096;-91
2022/10/31 01:09:40;;;;;;;231.50;72.28;;;16.40;99.90;;;;;;4884540;29;20036;-90
2022/10/31 01:12:08;;;;;;;221.52;69.70;;;16.60;99.90;;;;;;4900004;29;20507;-92
2022/10/31 01:14:42;;;;;;;203.32;66.20;;;16.60;99.90;;;;;;4899746;29;20044;-93
2022/10/31 01:17:09;;;;;;;182.98;65.05;;;16.70;99.90;;;;;;4899871;29;20067;-91
2022/10/31 01:19:39;;;;;;;183.05;62.38;;;16.70;99.90;;;;;;4899857;29;20048;-91
2022/10/31 01:22:07;;;;;;;199.60;60.85;;;16.60;99.90;;;;;;4899531;29;20044;-93
2022/10/31 01:24:34;;;;;;;238.00;65.15;;;16.60;99.90;;;;;;4899409;29;20051;-91
2022/10/31 01:27:03;;;;;;;243.63;62.33;;;16.60;99.90;;;;;;4899408;29;20044;-92
2022/10/31 01:29:34;;;;;;;322.00;67.22;;;16.60;99.90;;;;;;4898843;29;20036;-91
2022/10/31 01:32:01;;;;;;;336.08;65.43;;;16.60;99.90;;;;;;4899367;29;20398;-91
2022/10/31 01:34:30;;;;;;;460.00;71.15;;;16.60;99.90;;;;;;4899592;29;20390;-92
2022/10/31 01:36:57;;;;;;;373.88;63.47;;;16.70;99.90;;;;;;4899829;29;20475;-90
2022/10/31 01:39:33;;;;;;;334.98;60.25;;;16.70;99.90;;;;;;4899071;29;20112;-91
2022/10/31 01:42:00;;;;;;;401.17;66.43;;;16.70;99.90;;;;;;4899140;29;20048;-91
2022/10/31 01:44:26;;;;;;;344.08;62.55;;;16.80;99.90;;;;;;4899173;29;20025;-93
2022/10/31 01:47:11;;;;;;;345.77;67.10;;;16.80;99.90;;;;;;4899148;29;20092;-94
2022/10/31 01:49:46;;;;;;;254.60;59.88;;;16.80;99.90;;;;;;4899193;29;20032;-90
2022/10/31 01:52:30;;;;;;;223.80;59.45;;;16.80;99.90;;;;;;4898938;29;20119;-91
2022/10/31 01:55:28;;;;;;;212.70;59.75;;;16.80;99.90;;;;;;4898689;29;20033;-91
2022/10/31 01:58:26;;;;;;;208.23;57.03;;;16.80;99.90;;;;;;4874069;29;20124;-90
2022/10/31 02:00:59;;;;;;;225.60;57.55;;;16.80;99.90;;;;;;4880934;29;20051;-92
2022/10/31 02:03:30;;;;;;;218.40;57.53;;;16.80;99.90;;;;;;4898904;29;20036;-93
2022/10/31 02:05:58;;;;;;;228.68;59.95;;;16.90;99.90;;;;;;4899491;29;20037;-91
2022/10/31 02:08:37;;;;;;;205.48;56.47;;;16.90;99.90;;;;;;4898910;29;20486;-92
2022/10/31 02:11:05;;;;;;;202.70;54.80;;;17.00;99.90;;;;;;4898660;29;20056;-93
2022/10/31 02:13:34;;;;;;;199.90;57.53;;;17.00;99.90;;;;;;4898158;29;20032;-93
2022/10/31 02:16:01;;;;;;;203.90;58.22;;;16.90;99.90;;;;;;4898326;29;20028;-93
2022/10/31 02:18:30;;;;;;;191.10;59.88;;;17.00;99.90;;;;;;4899369;29;20029;-91
2022/10/31 02:21:11;;;;;;;187.65;55.25;;;17.00;99.90;;;;;;4898255;29;20060;-92
2022/10/31 02:23:55;;;;;;;202.88;58.38;;;17.10;99.90;;;;;;4898407;29;20502;-94
2022/10/31 02:26:43;;;;;;;225.35;60.08;;;17.10;99.90;;;;;;4898569;29;20470;-94
2022/10/31 02:29:33;;;;;;;247.90;56.22;;;17.10;99.90;;;;;;4898337;29;20041;-91
2022/10/31 02:32:38;;;;;;;223.43;55.40;;;17.10;99.90;;;;;;4882880;29;20394;-92
2022/10/31 02:35:42;;;;;;;223.98;58.53;;;17.10;99.90;;;;;;4882852;29;20486;-91
2022/10/31 02:38:27;;;;;;;177.50;52.95;;;17.10;99.90;;;;;;4883002;29;20518;-93
2022/10/31 02:41:35;;;;;;;183.00;54.63;;;17.10;99.90;;;;;;4898097;29;20443;-91
2022/10/31 02:44:36;;;;;;;167.55;51.35;;;17.10;99.90;;;;;;4897652;29;20390;-93
2022/10/31 02:47:13;;;;;;;153.50;51.30;;;17.10;99.90;;;;;;4898335;29;20391;-93
2022/10/31 02:49:59;;;;;;;143.30;48.08;;;17.20;99.90;;;;;;4898125;29;20029;-91
2022/10/31 02:52:32;;;;;;;165.20;54.55;;;17.10;99.90;;;;;;4898085;29;20032;-91
2022/10/31 02:55:25;;;;;;;154.48;52.65;;;17.20;99.90;;;;;;4897465;29;20127;-91
2022/10/31 02:58:06;;;;;;;165.23;53.80;;;17.10;99.90;;;;;;4897524;29;20043;-93
2022/10/31 03:01:02;;;;;;;172.27;55.00;;;17.10;99.90;;;;;;4882810;29;20096;-93
2022/10/31 03:03:53;;;;;;;153.48;51.92;;;17.10;99.90;;;;;;4882633;29;20561;-93
2022/10/31 03:06:25;;;;;;;156.95;54.38;;;17.10;99.90;;;;;;4898086;29;20044;-91
2022/10/31 03:09:13;;;;;;;164.02;57.38;;;17.10;99.90;;;;;;4898120;29;20116;-91
2022/10/31 03:11:53;;;;;;;157.52;54.03;;;17.10;99.90;;;;;;4897784;29;20048;-93
2022/10/31 03:14:36;;;;;;;143.20;54.25;;;17.10;99.90;;;;;;4898157;29;20032;-92
2022/10/31 03:17:08;;;;;;;134.52;52.38;;;17.10;99.90;;;;;;4897975;29;20029;-92
2022/10/31 03:19:42;;;;;;;133.38;51.42;;;17.10;99.90;;;;;;4898708;29;20128;-91
2022/10/31 03:22:26;;;;;;;140.45;50.33;;;17.10;99.90;;;;;;4897613;29;20040;-90
2022/10/31 03:24:58;;;;;;;141.68;54.25;;;17.10;99.90;;;;;;4899400;29;20179;-92
2022/10/31 03:27:27;;;;;;;139.88;51.72;;;17.20;99.90;;;;;;4901905;29;20028;-91
2022/10/31 03:29:58;;;;;;;144.40;55.13;;;17.20;99.90;;;;;;4901662;29;20025;-92
2022/10/31 03:32:34;;;;;;;140.25;53.72;;;17.10;99.90;;;;;;4901590;29;20029;-90
2022/10/31 03:35:05;;;;;;;131.15;51.78;;;17.10;99.90;;;;;;4901611;29;20120;-90
2022/10/31 03:37:37;;;;;;;138.10;54.80;;;17.10;99.90;;;;;;4902403;29;20025;-91
2022/10/31 03:40:07;;;;;;;136.85;52.50;;;17.10;99.90;;;;;;4901609;29;20036;-93
2022/10/31 03:42:40;;;;;;;122.13;49.33;;;17.10;99.90;;;;;;4901491;29;20052;-91
2022/10/31 03:45:26;;;;;;;123.55;50.20;;;17.20;99.90;;;;;;4901406;29;20032;-92
2022/10/31 03:47:54;;;;;;;123.20;51.80;;;17.20;99.90;;;;;;4901155;29;20040;-92
2022/10/31 03:50:25;;;;;;;129.50;52.17;;;17.20;99.90;;;;;;4901229;29;20510;-91
2022/10/31 03:53:12;;;;;;;141.93;54.00;;;17.20;99.90;;;;;;4901325;29;20032;-92
2022/10/31 03:55:59;;;;;;;134.43;51.65;;;17.20;99.90;;;;;;4901202;29;20032;-92
2022/10/31 03:58:32;;;;;;;135.38;51.75;;;17.20;99.90;;;;;;4901135;29;20092;-91
2022/10/31 04:01:03;;;;;;;130.32;50.80;;;17.20;99.90;;;;;;4901195;29;20134;-92
2022/10/31 04:03:34;;;;;;;142.10;54.72;;;17.20;99.90;;;;;;4901228;29;20032;-92
2022/10/31 04:06:10;;;;;;;133.98;53.38;;;17.20;99.90;;;;;;4901887;29;20028;-93
2022/10/31 04:08:48;;;;;;;136.05;52.60;;;17.20;99.90;;;;;;4900743;29;20044;-92
2022/10/31 04:11:25;;;;;;;143.07;57.63;;;17.20;99.90;;;;;;4900925;29;20060;-94
2022/10/31 04:14:12;;;;;;;138.57;54.35;;;17.20;99.90;;;;;;4901871;29;20084;-92
2022/10/31 04:16:46;;;;;;;131.88;53.47;;;17.20;99.90;;;;;;4900841;29;20036;-95
2022/10/31 04:19:14;;;;;;;126.97;51.20;;;17.20;99.90;;;;;;4900879;29;20676;-91
2022/10/31 04:21:43;;;;;;;134.02;56.40;;;17.20;99.90;;;;;;4900047;29;20055;-91
2022/10/31 04:24:11;;;;;;;127.95;54.63;;;17.20;99.90;;;;;;4884996;29;20111;-92
2022/10/31 04:26:41;;;;;;;139.15;53.10;;;17.20;99.90;;;;;;4884875;29;20032;-90
2022/10/31 04:29:10;;;;;;;138.82;55.63;;;17.20;99.90;;;;;;4900507;29;20040;-92
2022/10/31 04:31:38;;;;;;;142.25;57.50;;;17.20;99.90;;;;;;4885347;29;20119;-93
2022/10/31 04:34:04;;;;;;;148.48;56.63;;;17.20;99.90;;;;;;4900569;29;20033;-92
2022/10/31 04:36:31;;;;;;;136.63;55.05;;;17.20;99.90;;;;;;4899611;29;20570;-92
2022/10/31 04:38:58;;;;;;;146.43;56.28;;;17.20;99.90;;;;;;4900294;29;20032;-91
2022/10/31 04:41:42;;;;;;;143.43;53.55;;;17.20;99.90;;;;;;4900969;29;20108;-91
2022/10/31 04:44:14;;;;;;;142.68;56.90;;;17.20;99.90;;;;;;4899577;29;20079;-91
2022/10/31 04:46:47;;;;;;;152.30;56.70;;;17.30;99.90;;;;;;4900692;29;20091;-92
2022/10/31 04:49:17;;;;;;;141.18;54.05;;;17.20;99.90;;;;;;4900492;29;20041;-93
2022/10/31 04:51:46;;;;;;;133.52;55.00;;;17.30;99.90;;;;;;4896612;29;20199;-90
2022/10/31 04:54:14;;;;;;;137.90;54.75;;;17.30;99.90;;;;;;4865343;29;20040;-91
2022/10/31 04:56:40;;;;;;;138.65;57.22;;;17.30;99.90;;;;;;4880969;29;20081;-92
2022/10/31 04:59:14;;;;;;;125.28;49.10;;;17.30;99.90;;;;;;4879657;29;20061;-91
2022/10/31 05:02:00;;;;;;;120.38;50.63;;;17.30;99.90;;;;;;4878566;29;20073;-91
2022/10/31 05:08:33;;;;;;;116.75;47.03;;;17.40;99.90;;;;;;4940651;23;20106;-90
2022/10/31 05:11:05;;;;;;;118.45;49.33;;;17.50;99.90;;;;;;4922474;29;20098;-91
2022/10/31 05:13:33;;;;;;;116.88;49.70;;;17.40;99.90;;;;;;4922085;29;20032;-91
2022/10/31 05:16:18;;;;;;;102.00;47.75;;;17.40;99.90;;;;;;4938392;29;20031;-94
2022/10/31 05:18:48;;;;;;;96.13;45.92;;;17.50;99.90;;;;;;4937615;29;20031;-92
2022/10/31 05:21:52;;;;;;;102.15;42.75;;;17.50;99.90;;;;;;4937417;29;20036;-94
2022/10/31 05:24:21;;;;;;;90.85;41.20;;;17.50;99.90;;;;;;4914646;29;20038;-93
2022/10/31 05:26:49;;;;;;;90.53;40.13;;;17.50;99.90;;;;;;4921626;29;20392;-92
2022/10/31 05:29:19;;;;;;;74.75;36.95;;;17.60;99.90;;;;;;4913910;29;20027;-92
2022/10/31 05:31:46;;;;;;;75.05;37.50;;;17.60;99.90;;;;;;4921828;29;20059;-91
2022/10/31 05:34:32;;;;;;;79.75;37.10;;;17.70;99.90;;;;;;4937443;29;20393;-93
2022/10/31 05:37:28;;;;;;;69.07;35.20;;;17.70;99.90;;;;;;4931195;29;20051;-93
2022/10/31 05:39:59;;;;;;;64.13;33.53;;;17.70;99.90;;;;;;4921366;29;20034;-91
2022/10/31 05:42:26;;;;;;;69.38;32.40;;;17.70;99.90;;;;;;4921552;29;20040;-93
2022/10/31 05:44:53;;;;;;;66.70;32.50;;;17.80;99.90;;;;;;4922582;29;20055;-93
2022/10/31 05:48:10;;;;;;;61.83;31.23;;;17.80;99.90;;;;;;4867868;29;20045;-90
2022/10/31 05:50:54;;;;;;;58.05;29.60;;;17.90;99.90;;;;;;4866813;29;20040;-91
2022/10/31 05:53:53;;;;;;;56.78;28.98;;;17.90;99.90;;;;;;4864461;29;20024;-91
2022/10/31 05:56:21;;;;;;;56.95;29.50;;;18.00;99.90;;;;;;4849180;29;20029;-90
2022/10/31 05:58:49;;;;;;;53.30;29.40;;;18.00;99.90;;;;;;4849073;29;20043;-90
2022/10/31 06:01:16;;;;;;;55.45;29.70;;;18.00;99.90;;;;;;4848916;29;20081;-90
2022/10/31 06:03:45;;;;;;;60.10;28.65;;;18.00;99.90;;;;;;4849006;29;20053;-93
2022/10/31 06:06:18;;;;;;;57.75;28.25;;;18.10;99.90;;;;;;4849055;29;20029;-94
2022/10/31 06:08:46;;;;;;;59.13;27.20;;;18.20;99.90;;;;;;4848813;29;20048;-92
2022/10/31 06:11:18;;;;;;;53.25;26.75;;;18.30;99.90;;;;;;4849036;29;20041;-91
2022/10/31 06:14:11;;;;;;;55.35;25.70;;;18.30;99.90;;;;;;4847302;29;20243;-91
2022/10/31 06:16:50;;;;;;;46.05;26.00;;;18.40;99.90;;;;;;4850272;29;20033;-93
2022/10/31 06:19:35;;;;;;;55.90;26.75;;;18.40;99.90;;;;;;4866981;29;20083;-93
2022/10/31 06:22:02;;;;;;;48.00;25.00;;;18.50;99.90;;;;;;4848349;29;20044;-93
2022/10/31 06:24:29;;;;;;;49.67;24.27;;;18.70;99.90;;;;;;4891981;29;20060;-93
2022/10/31 06:27:20;;;;;;;44.58;24.45;;;18.80;99.90;;;;;;4923633;29;20031;-92
2022/10/31 06:29:49;;;;;;;54.63;24.35;;;18.90;99.90;;;;;;4920715;29;20079;-91
2022/10/31 06:32:27;;;;;;;44.80;22.75;;;19.00;99.90;;;;;;4922012;29;20393;-92
2022/10/31 06:34:54;;;;;;;41.83;21.63;;;19.20;99.90;;;;;;4920705;29;20042;-90
2022/10/31 06:37:24;;;;;;;42.17;19.70;;;19.50;99.90;;;;;;4920661;29;20043;-91
2022/10/31 06:39:52;;;;;;;44.00;21.30;;;19.60;99.90;;;;;;4920958;29;20031;-91
2022/10/31 06:42:19;;;;;;;50.45;24.88;;;19.70;99.90;;;;;;4921135;29;20090;-90
2022/10/31 06:44:46;;;;;;;56.22;24.08;;;19.60;99.90;;;;;;4921312;29;20478;-93
2022/10/31 06:47:31;;;;;;;44.58;23.83;;;19.50;99.90;;;;;;4937054;29;20071;-91
2022/10/31 06:50:16;;;;;;;38.38;21.80;;;19.60;99.90;;;;;;4936548;29;20119;-90
2022/10/31 06:52:57;;;;;;;40.28;21.98;;;19.70;99.90;;;;;;4920611;29;20051;-90
2022/10/31 06:55:25;;;;;;;51.83;23.08;;;19.70;99.90;;;;;;4919982;29;20034;-92
2022/10/31 06:58:01;;;;;;;40.25;21.30;;;19.80;99.90;;;;;;4920257;29;20066;-91
2022/10/31 07:00:31;;;;;;;44.78;21.65;;;19.70;99.90;;;;;;4919882;29;20048;-91
2022/10/31 07:03:17;;;;;;;38.70;21.23;;;19.70;99.90;;;;;;4921082;29;20047;-92
2022/10/31 07:05:44;;;;;;;33.47;19.23;;;19.90;99.90;;;;;;4920185;29;20031;-93
2022/10/31 07:08:14;;;;;;;42.03;21.92;;;20.10;99.90;;;;;;4919751;29;20102;-90
2022/10/31 07:10:43;;;;;;;45.45;21.92;;;20.00;99.90;;;;;;4920282;29;20032;-91
2022/10/31 07:13:13;;;;;;;39.88;21.27;;;19.90;99.90;;;;;;4919979;29;20122;-91
2022/10/31 07:15:42;;;;;;;43.80;22.63;;;20.00;99.90;;;;;;4919838;29;20032;-92
2022/10/31 07:18:11;;;;;;;34.88;20.23;;;20.00;99.90;;;;;;4919714;29;20027;-91
2022/10/31 07:20:38;;;;;;;52.05;20.42;;;19.80;99.90;;;;;;4919735;29;20032;-93
2022/10/31 07:23:04;;;;;;;40.95;22.25;;;20.00;99.90;;;;;;4919978;29;20047;-94
2022/10/31 07:25:32;;;;;;;45.13;22.48;;;20.10;99.90;;;;;;4920022;29;20143;-94
2022/10/31 07:28:06;;;;;;;30.63;18.00;;;20.30;99.90;;;;;;4935828;29;20025;-92
2022/10/31 07:30:37;;;;;;;35.13;19.10;;;20.30;99.90;;;;;;4920045;29;20028;-92
2022/10/31 07:33:05;;;;;;;40.28;20.00;;;20.60;99.90;;;;;;4919494;29;20167;-91
2022/10/31 07:35:50;;;;;;;35.60;21.67;;;20.70;99.90;;;;;;4936300;29;20039;-90
2022/10/31 07:38:22;;;;;;;38.22;20.35;;;20.70;99.90;;;;;;4920470;29;20039;-90
2022/10/31 07:40:55;;;;;;;37.72;22.48;;;20.60;99.90;;;;;;4919624;29;20106;-90
2022/10/31 07:43:24;;;;;;;37.65;21.15;;;20.60;99.90;;;;;;4919838;29;20032;-92
2022/10/31 07:46:11;;;;;;;43.05;22.20;;;20.50;99.90;;;;;;4925840;29;20038;-91
2022/10/31 07:48:56;;;;;;;41.22;23.17;;;20.50;99.90;;;;;;4935917;29;20047;-90
2022/10/31 07:51:41;;;;;;;52.05;24.50;;;20.50;99.90;;;;;;4935624;29;20079;-93
2022/10/31 07:54:30;;;;;;;37.70;21.30;;;20.70;99.90;;;;;;4933413;29;20102;-90
2022/10/31 07:56:57;;;;;;;38.60;19.13;;;20.70;99.90;;;;;;4919524;29;20545;-93
2022/10/31 07:59:23;;;;;;;34.80;19.33;;;20.90;99.90;;;;;;4919481;29;20119;-90
2022/10/31 08:01:50;;;;;;;37.03;19.33;;;21.00;99.90;;;;;;4919251;29;20532;-92
2022/10/31 08:04:54;;;;;;;41.85;20.88;;;21.20;99.90;;;;;;4886547;29;20032;-92
2022/10/31 08:07:39;;;;;;;41.78;22.35;;;21.10;99.90;;;;;;4883728;29;20091;-89
2022/10/31 08:35:24;;;;;;;36.78;18.83;;;21.10;99.90;;;;;;2616807;23;20194;-93
2022/10/31 08:38:14;;;;;;;36.22;19.98;;;21.10;99.90;;;;;;4882641;29;20352;-93
2022/10/31 08:48:32;;;;;;;35.38;20.08;;;21.30;99.90;;;;;;4748112;30;20051;-94
2022/10/31 08:51:10;;;;;;;37.35;20.55;;;21.30;99.90;;;;;;4825814;29;20123;-93
2022/10/31 08:53:54;;;;;;;37.60;20.10;;;21.40;99.90;;;;;;4778534;29;20493;-93
2022/10/31 09:10:21;;;;;;;30.80;18.85;;;21.30;99.90;;;;;;4901365;29;20045;-92
2022/10/31 09:13:29;;;;;;;35.38;20.23;;;21.30;99.90;;;;;;4905398;29;20435;-93
2022/10/31 09:16:20;;;;;;;31.60;18.55;;;21.40;99.90;;;;;;4924156;29;20047;-92
2022/10/31 09:37:11;;;;;;;34.40;20.05;;;21.90;99.90;;;;;;5463383;23;20512;-91
2022/10/31 09:40:45;;;;;;;;;;;;;;;;;;;;;
2022/10/31 09:44:40;;;;;;;;;;;;;;;;;;;;;
2022/10/31 09:48:18;;;;;;;;;;;;;;;;;;;;;
2022/10/31 10:00:01;;;;;;;;;;;;;;;;;;;;;
2022/10/31 10:07:21;;;;;;;;;;;;;;;;;;;;;
2022/10/31 10:14:25;;;;;;;30.42;19.52;;;22.50;99.90;;;;;;4738038;30;20047;-93
2022/10/31 10:23:12;;;;;;;26.40;19.17;;;22.60;99.90;;;;;;4964175;23;20051;-91
2022/10/31 10:27:14;;;;;;;;;;;;;;;;;;;;;
2022/10/31 10:35:05;;;;;;;23.88;16.17;;;22.30;99.90;;;;;;4958350;28;20062;-91
2022/10/31 10:51:37;;;;;;;25.90;18.13;;;22.60;99.90;;;;;;4916789;29;20070;-92
2022/10/31 10:55:00;;;;;;;26.00;18.95;;;22.60;99.90;;;;;;4877579;29;20036;-91
2022/10/31 10:58:52;;;;;;;25.15;17.35;;;22.60;99.90;;;;;;4873571;29;20135;-93
2022/10/31 11:02:25;;;;;;;25.45;18.27;;;22.80;99.90;;;;;;4868808;29;20060;-93
2022/10/31 11:06:10;;;;;;;22.08;17.92;;;22.80;99.90;;;;;;4831684;29;20038;-92
2022/10/31 11:17:33;;;;;;;;;;;;;;;;;;;;;
2022/10/31 11:28:52;;;;;;;;;;;;;;;;;;;;;
2022/10/31 11:32:06;;;;;;;20.65;18.35;;;23.00;99.90;;;;;;4754698;30;20232;-92
2022/10/31 11:46:05;;;;;;;27.30;19.67;;;23.00;99.90;;;;;;4698593;30;20184;-91
2022/10/31 11:49:16;;;;;;;20.52;18.45;;;23.00;99.90;;;;;;4709470;30;20065;-92
2022/10/31 11:52:07;;;;;;;25.60;19.05;;;23.20;99.90;;;;;;4708067;30;20136;-91
2022/10/31 11:55:22;;;;;;;20.25;18.30;;;23.30;99.90;;;;;;4722336;30;20045;-94
2022/10/31 11:58:09;;;;;;;22.23;16.50;;;23.20;99.90;;;;;;4726763;30;20041;-94
2022/10/31 12:01:31;;;;;;;22.23;15.98;;;23.20;99.90;;;;;;4728911;30;20135;-92
2022/10/31 12:05:06;;;;;;;17.70;15.70;;;23.20;99.90;;;;;;4757034;30;20136;-92
2022/10/31 12:08:47;;;;;;;24.17;17.23;;;23.20;99.90;;;;;;4775498;30;20047;-93
2022/10/31 12:14:55;;;;;;;22.35;15.98;;;23.30;99.90;;;;;;4945005;29;20052;-92
2022/10/31 16:56:40;;;;;;;29.80;17.73;;;19.20;99.90;;;;;;4918688;29;20056;-93
2022/10/31 17:02:56;;;;;;;36.15;18.38;;;19.10;99.90;;;;;;4932852;23;20050;-93
2022/10/31 17:06:00;;;;;;;40.03;19.75;;;19.10;99.90;;;;;;4952701;24;20112;-93
2022/10/31 17:08:32;;;;;;;29.08;17.10;;;19.10;99.90;;;;;;4893864;29;20040;-93
2022/10/31 17:11:02;;;;;;;33.42;17.58;;;19.10;99.90;;;;;;4897237;29;20029;-93
2022/10/31 17:46:58;;;;;;;32.35;19.10;;;18.90;99.90;;;;;;5490247;23;20039;31
2022/10/31 18:17:00;;;;;;;47.30;24.42;;;18.80;99.90;;;;;;4883499;29;20049;-94
2022/10/31 18:19:29;;;;;;;59.92;27.75;;;18.80;99.90;;;;;;4851446;29;20033;-93
2022/10/31 18:21:56;;;;;;;50.60;25.20;;;18.80;99.90;;;;;;4850209;29;20032;-93
2022/10/31 18:24:22;;;;;;;54.22;26.95;;;18.70;99.90;;;;;;4865095;29;20044;-93
2022/10/31 18:26:49;;;;;;;48.63;25.80;;;18.80;99.90;;;;;;4851441;29;20032;-93
2022/10/31 18:29:22;;;;;;;56.58;26.33;;;18.80;99.90;;;;;;4851699;29;20037;-93
2022/10/31 18:31:52;;;;;;;51.35;27.45;;;18.80;99.90;;;;;;4853875;29;20120;-93
2022/10/31 18:34:19;;;;;;;49.20;26.13;;;18.80;99.90;;;;;;4856703;29;20036;-94
2022/10/31 18:36:46;;;;;;;61.78;26.85;;;18.70;99.90;;;;;;4853136;29;20539;-93
2022/10/31 18:39:16;;;;;;;49.55;25.05;;;18.80;99.90;;;;;;4860982;29;20033;-93
2022/10/31 18:41:48;;;;;;;49.40;26.30;;;18.70;99.90;;;;;;4876890;29;20072;-94
2022/10/31 18:47:16;;;;;;;59.17;25.58;;;18.70;99.90;;;;;;4877145;29;20060;-93
2022/10/31 18:49:48;;;;;;;53.58;22.83;;;18.70;99.90;;;;;;4854162;29;20037;-94
2022/10/31 18:52:42;;;;;;;49.95;25.25;;;18.70;99.90;;;;;;4844248;29;20093;-94
2022/10/31 18:55:09;;;;;;;56.38;24.45;;;18.70;99.90;;;;;;4829999;29;20042;-93
2022/10/31 18:57:38;;;;;;;57.58;24.35;;;18.70;99.90;;;;;;4816722;29;20041;-93
2022/10/31 19:00:08;;;;;;;42.03;23.17;;;18.60;99.90;;;;;;4829495;29;20038;-94
2022/10/31 19:03:08;;;;;;;42.00;22.67;;;18.60;99.90;;;;;;4828928;29;20046;-93
2022/10/31 19:05:34;;;;;;;35.85;21.98;;;18.60;99.90;;;;;;4812397;29;20050;-93
2022/10/31 19:08:10;;;;;;;43.83;22.40;;;18.60;99.90;;;;;;4812481;29;20030;-94
2022/10/31 19:10:39;;;;;;;38.80;21.95;;;18.60;99.90;;;;;;4810987;29;20071;-93
2022/10/31 19:13:08;;;;;;;46.38;23.25;;;18.60;99.90;;;;;;4827080;29;20046;-94
2022/10/31 19:15:35;;;;;;;46.85;21.95;;;18.60;99.90;;;;;;4812674;29;20047;-93
2022/10/31 19:18:30;;;;;;;42.83;22.58;;;18.60;99.90;;;;;;4811089;29;20054;-93
2022/10/31 19:21:22;;;;;;;44.55;22.73;;;18.50;99.90;;;;;;4772381;30;20055;-93
2022/10/31 19:24:03;;;;;;;;;;;;;;;;;;;;;
2022/10/31 19:26:50;;;;;;;35.55;22.08;;;18.50;99.90;;;;;;4792805;30;20035;-93
2022/10/31 19:29:29;;;;;;;;;;;;;;;;;;;;;
2022/10/31 19:38:49;;;;;;;56.95;24.58;;;18.50;99.90;;;;;;5888798;23;21390;-93
2022/10/31 19:41:19;;;;;;;44.75;22.77;;;18.40;99.90;;;;;;4882799;29;20033;-92
2022/10/31 19:43:48;;;;;;;44.03;22.10;;;18.40;99.90;;;;;;4889082;29;20168;-94
2022/10/31 20:09:13;;;;;;;46.85;24.88;;;18.20;99.90;;;;;;5266402;23;20452;-94
2022/10/31 20:11:44;;;;;;;46.60;21.77;;;18.10;99.90;;;;;;4941752;29;20039;-93
2022/10/31 20:14:15;;;;;;;44.22;22.52;;;18.10;99.90;;;;;;4926843;29;20050;-94
2022/10/31 20:16:49;;;;;;;40.67;22.10;;;18.00;99.90;;;;;;4923119;29;20031;-94
2022/10/31 20:19:19;;;;;;;48.38;25.00;;;17.90;99.90;;;;;;4923351;29;20409;-93
2022/10/31 20:21:46;;;;;;;44.33;23.10;;;17.90;99.90;;;;;;4923659;29;20036;-95
2022/10/31 20:24:23;;;;;;;38.60;21.73;;;17.90;99.90;;;;;;4924943;29;20023;-93
2022/10/31 20:30:44;;;;;;;39.55;20.58;;;18.00;99.90;;;;;;4935758;29;20179;-93
2022/10/31 20:33:14;;;;;;;37.25;22.75;;;17.90;99.90;;;;;;4923080;29;20050;-94
2022/10/31 20:35:41;;;;;;;45.30;22.63;;;17.80;99.90;;;;;;4907059;29;20107;-92
2022/10/31 20:38:11;;;;;;;44.67;23.30;;;17.80;99.90;;;;;;4906927;29;20054;-92
2022/10/31 20:40:38;;;;;;;51.63;23.23;;;17.90;99.90;;;;;;4907187;29;20079;-92
2022/10/31 20:43:06;;;;;;;47.95;24.52;;;17.90;99.90;;;;;;4922584;29;20127;-93
2022/10/31 20:45:32;;;;;;;45.78;24.73;;;17.90;99.90;;;;;;4922433;29;20027;-93
2022/10/31 20:47:59;;;;;;;44.05;23.92;;;17.90;99.90;;;;;;4922832;29;20036;-92
2022/10/31 20:50:25;;;;;;;47.28;24.33;;;17.90;99.90;;;;;;4922924;29;20024;-92
2022/10/31 20:52:52;;;;;;;51.35;25.13;;;17.90;99.90;;;;;;4939814;29;20028;-91
2022/10/31 20:55:37;;;;;;;50.13;25.90;;;17.90;99.90;;;;;;4923832;29;20028;-92
2022/10/31 20:58:07;;;;;;;59.05;26.33;;;17.90;99.90;;;;;;4925106;29;20035;-92
2022/10/31 21:00:33;;;;;;;49.08;26.58;;;17.90;99.90;;;;;;4931737;29;20024;-93
2022/10/31 21:03:00;;;;;;;53.45;25.58;;;17.90;99.90;;;;;;4933896;29;20052;-92
2022/10/31 21:05:26;;;;;;;49.65;26.55;;;17.90;99.90;;;;;;4930940;29;20023;-91
2022/10/31 21:07:52;;;;;;;57.38;28.83;;;18.00;99.90;;;;;;4923548;29;20066;-92
2022/10/31 21:10:19;;;;;;;49.35;27.75;;;17.90;99.90;;;;;;4918555;29;20044;-92
2022/10/31 21:12:45;;;;;;;49.70;27.90;;;17.90;99.90;;;;;;4903131;29;20028;-91
2022/10/31 21:15:14;;;;;;;62.58;29.88;;;17.90;99.90;;;;;;4903121;29;20024;-92
2022/10/31 21:17:41;;;;;;;52.22;30.23;;;17.90;99.90;;;;;;4918659;29;20131;-92
2022/10/31 21:20:23;;;;;;;58.08;27.98;;;17.90;99.90;;;;;;4902828;29;20059;-92
2022/10/31 21:22:50;;;;;;;58.97;28.73;;;17.90;99.90;;;;;;4919003;29;20044;-93
2022/10/31 21:25:17;;;;;;;48.28;25.45;;;17.80;99.90;;;;;;4911453;29;20028;-93
2022/10/31 21:27:43;;;;;;;50.00;27.38;;;17.70;99.90;;;;;;4902894;29;20032;-92
2022/10/31 21:30:10;;;;;;;59.08;29.75;;;17.70;99.90;;;;;;4902803;29;20028;-92
2022/10/31 21:32:37;;;;;;;54.47;29.50;;;17.60;99.90;;;;;;4902804;29;20040;-92
2022/10/31 21:35:04;;;;;;;56.97;30.55;;;17.60;99.90;;;;;;4902571;29;20036;-92
2022/10/31 21:37:30;;;;;;;50.58;28.13;;;17.50;99.90;;;;;;4902862;29;20122;-92
2022/10/31 21:39:56;;;;;;;63.67;30.38;;;17.40;99.90;;;;;;4918418;29;20056;-93
2022/10/31 21:42:23;;;;;;;57.80;28.75;;;17.30;99.90;;;;;;4902634;29;20044;-92
2022/10/31 21:44:50;;;;;;;51.58;28.15;;;17.30;99.90;;;;;;4902540;29;20115;-93
2022/10/31 21:47:17;;;;;;;58.20;28.83;;;17.20;99.90;;;;;;4911771;29;20083;-92
2022/10/31 21:49:44;;;;;;;57.97;29.85;;;17.30;99.90;;;;;;4918586;29;20024;-91
2022/10/31 21:52:11;;;;;;;54.03;27.65;;;17.30;99.90;;;;;;4902351;29;20036;-93
2022/10/31 21:54:37;;;;;;;52.65;29.38;;;17.40;99.90;;;;;;4919320;29;20501;-91
2022/10/31 21:57:03;;;;;;;55.35;28.25;;;17.40;99.90;;;;;;4903088;29;20091;-91
2022/10/31 21:59:30;;;;;;;61.35;29.80;;;17.40;99.90;;;;;;4903794;29;20048;-94
2022/10/31 22:01:59;;;;;;;56.80;28.52;;;17.40;99.90;;;;;;4919450;29;20036;-93
2022/10/31 22:04:27;;;;;;;58.75;31.30;;;17.50;99.90;;;;;;4919207;29;20032;-91
2022/10/31 22:06:54;;;;;;;52.47;29.60;;;17.50;99.90;;;;;;4918649;29;20028;-92
2022/10/31 22:09:22;;;;;;;54.65;29.75;;;17.50;99.90;;;;;;4902228;29;20055;-92
2022/10/31 22:11:49;;;;;;;60.05;32.05;;;17.50;99.90;;;;;;4902725;29;20036;-93
2022/10/31 22:14:16;;;;;;;57.70;29.73;;;17.50;99.90;;;;;;4888306;29;20036;-93
2022/10/31 22:16:43;;;;;;;54.08;29.35;;;17.50;99.90;;;;;;4903286;29;20111;-92